sensor_id;sensor_type;location;lat;lon;timestamp;temperature;humidity
30300;DHT22;17110;52.602;12.998;2023-03-14T00:01:17;11.40;99.90
30300;DHT22;17110;52.602;12.998;2023-03-14T00:03:43;11.40;99.90
30300;DHT22;17110;52.602;12.998;2023-03-14T00:06:10;11.40;99.90
30300;DHT22;17110;52.602;12.998;2023-03-14T00:08:37;11.20;99.90
30300;DHT22;17110;52.602;12.998;2023-03-14T00:11:08;11.20;99.90
30300;DHT22;17110;52.602;12.998;2023-03-14T00:13:34;11.30;99.90
30300;DHT22;17110;52.602;12.998;2023-03-14T00:16:10;11.20;99.90
30300;DHT22;17110;52.602;12.998;2023-03-14T00:18:36;11.30;99.90
30300;DHT22;17110;52.602;12.998;2023-03-14T00:21:03;11.30;99.90
30300;DHT22;17110;52.602;12.998;2023-03-14T00:23:31;11.20;99.90
30300;DHT22;17110;52.602;12.998;2023-03-14T00:26:04;11.20;99.90
30300;DHT22;17110;52.602;12.998;2023-03-14T00:28:30;11.30;99.90
30300;DHT22;17110;52.602;12.998;2023-03-14T00:30:56;11.10;99.90
30300;DHT22;17110;52.602;12.998;2023-03-14T00:33:23;11.00;99.90
30300;DHT22;17110;52.602;12.998;2023-03-14T00:36:00;10.90;99.90
30300;DHT22;17110;52.602;12.998;2023-03-14T00:38:26;11.10;99.90
30300;DHT22;17110;52.602;12.998;2023-03-14T00:40:53;11.00;99.90
30300;DHT22;17110;52.602;12.998;2023-03-14T00:43:20;11.00;99.90
30300;DHT22;17110;52.602;12.998;2023-03-14T00:45:49;11.00;99.90
30300;DHT22;17110;52.602;12.998;2023-03-14T00:48:16;10.90;99.90
30300;DHT22;17110;52.602;12.998;2023-03-14T00:50:42;10.90;99.90
30300;DHT22;17110;52.602;12.998;2023-03-14T00:53:08;11.00;99.90
30300;DHT22;17110;52.602;12.998;2023-03-14T00:55:42;11.00;99.90
30300;DHT22;17110;52.602;12.998;2023-03-14T00:58:12;11.10;99.90
30300;DHT22;17110;52.602;12.998;2023-03-14T01:00:38;11.10;99.90
30300;DHT22;17110;52.602;12.998;2023-03-14T01:03:05;11.10;99.90
30300;DHT22;17110;52.602;12.998;2023-03-14T01:05:33;10.90;99.90
30300;DHT22;17110;52.602;12.998;2023-03-14T01:08:06;11.00;99.90
30300;DHT22;17110;52.602;12.998;2023-03-14T01:10:52;10.90;99.90
30300;DHT22;17110;52.602;12.998;2023-03-14T01:13:18;11.00;99.90
30300;DHT22;17110;52.602;12.998;2023-03-14T01:15:44;10.80;99.90
30300;DHT22;17110;52.602;12.998;2023-03-14T01:18:10;10.80;99.90
30300;DHT22;17110;52.602;12.998;2023-03-14T01:20:37;10.80;99.90
30300;DHT22;17110;52.602;12.998;2023-03-14T01:23:10;10.60;99.90
30300;DHT22;17110;52.602;12.998;2023-03-14T01:25:41;10.70;99.90
30300;DHT22;17110;52.602;12.998;2023-03-14T01:28:07;10.70;99.90
30300;DHT22;17110;52.602;12.998;2023-03-14T01:30:33;10.70;99.90
30300;DHT22;17110;52.602;12.998;2023-03-14T01:32:58;10.90;99.90
30300;DHT22;17110;52.602;12.998;2023-03-14T01:35:26;10.80;99.90
30300;DHT22;17110;52.602;12.998;2023-03-14T01:37:52;10.70;99.90
30300;DHT22;17110;52.602;12.998;2023-03-14T01:40:18;10.90;99.90
30300;DHT22;17110;52.602;12.998;2023-03-14T01:42:46;10.80;99.90
30300;DHT22;17110;52.602;12.998;2023-03-14T01:48:17;10.80;99.90
30300;DHT22;17110;52.602;12.998;2023-03-14T01:50:43;10.80;99.90
30300;DHT22;17110;52.602;12.998;2023-03-14T01:53:09;10.90;99.90
30300;DHT22;17110;52.602;12.998;2023-03-14T01:55:36;10.90;99.90
30300;DHT22;17110;52.602;12.998;2023-03-14T01:58:03;10.80;99.90
30300;DHT22;17110;52.602;12.998;2023-03-14T02:00:30;10.80;99.90
30300;DHT22;17110;52.602;12.998;2023-03-14T02:03:05;10.80;99.90
30300;DHT22;17110;52.602;12.998;2023-03-14T02:05:37;10.90;99.90
30300;DHT22;17110;52.602;12.998;2023-03-14T02:08:06;10.80;99.90
30300;DHT22;17110;52.602;12.998;2023-03-14T02:10:41;10.70;99.90
30300;DHT22;17110;52.602;12.998;2023-03-14T02:13:12;10.70;99.90
30300;DHT22;17110;52.602;12.998;2023-03-14T02:15:39;10.70;99.90
30300;DHT22;17110;52.602;12.998;2023-03-14T02:18:06;10.70;99.90
30300;DHT22;17110;52.602;12.998;2023-03-14T02:26:14;10.70;99.90
30300;DHT22;17110;52.602;12.998;2023-03-14T02:28:41;10.70;99.90
30300;DHT22;17110;52.602;12.998;2023-03-14T02:31:10;10.60;99.90
30300;DHT22;17110;52.602;12.998;2023-03-14T02:33:37;10.70;99.90
30300;DHT22;17110;52.602;12.998;2023-03-14T02:36:09;10.70;99.90
30300;DHT22;17110;52.602;12.998;2023-03-14T02:39:08;10.60;99.90
30300;DHT22;17110;52.602;12.998;2023-03-14T02:41:39;10.70;99.90
30300;DHT22;17110;52.602;12.998;2023-03-14T02:44:05;10.60;99.90
30300;DHT22;17110;52.602;12.998;2023-03-14T02:46:31;10.60;99.90
30300;DHT22;17110;52.602;12.998;2023-03-14T02:49:10;10.50;99.90
30300;DHT22;17110;52.602;12.998;2023-03-14T02:51:38;10.50;99.90
30300;DHT22;17110;52.602;12.998;2023-03-14T02:54:05;10.50;99.90
30300;DHT22;17110;52.602;12.998;2023-03-14T02:56:34;10.60;99.90
30300;DHT22;17110;52.602;12.998;2023-03-14T02:59:04;10.60;99.90
30300;DHT22;17110;52.602;12.998;2023-03-14T03:01:29;10.70;99.90
30300;DHT22;17110;52.602;12.998;2023-03-14T03:03:55;10.60;99.90
30300;DHT22;17110;52.602;12.998;2023-03-14T03:06:21;10.80;99.90
30300;DHT22;17110;52.602;12.998;2023-03-14T03:08:47;10.60;99.90
30300;DHT22;17110;52.602;12.998;2023-03-14T03:11:13;10.50;99.90
30300;DHT22;17110;52.602;12.998;2023-03-14T03:13:38;10.60;99.90
30300;DHT22;17110;52.602;12.998;2023-03-14T03:16:05;10.50;99.90
30300;DHT22;17110;52.602;12.998;2023-03-14T03:18:31;10.70;99.90
30300;DHT22;17110;52.602;12.998;2023-03-14T03:21:02;10.70;99.90
30300;DHT22;17110;52.602;12.998;2023-03-14T03:23:31;10.60;99.90
30300;DHT22;17110;52.602;12.998;2023-03-14T03:25:57;10.50;99.90
30300;DHT22;17110;52.602;12.998;2023-03-14T03:28:23;10.60;99.90
30300;DHT22;17110;52.602;12.998;2023-03-14T03:30:49;10.50;99.90
30300;DHT22;17110;52.602;12.998;2023-03-14T03:33:15;10.60;99.90
30300;DHT22;17110;52.602;12.998;2023-03-14T03:35:46;10.50;99.90
30300;DHT22;17110;52.602;12.998;2023-03-14T03:38:12;10.50;99.90
30300;DHT22;17110;52.602;12.998;2023-03-14T03:40:41;10.50;99.90
30300;DHT22;17110;52.602;12.998;2023-03-14T03:43:06;10.40;99.90
30300;DHT22;17110;52.602;12.998;2023-03-14T03:45:34;10.50;99.90
30300;DHT22;17110;52.602;12.998;2023-03-14T03:48:00;10.60;99.90
30300;DHT22;17110;52.602;12.998;2023-03-14T03:50:29;10.50;99.90
30300;DHT22;17110;52.602;12.998;2023-03-14T03:52:55;10.40;99.90
30300;DHT22;17110;52.602;12.998;2023-03-14T03:55:21;10.50;99.90
30300;DHT22;17110;52.602;12.998;2023-03-14T03:57:47;10.40;99.90
30300;DHT22;17110;52.602;12.998;2023-03-14T04:00:13;10.50;99.90
30300;DHT22;17110;52.602;12.998;2023-03-14T04:02:38;10.50;99.90
30300;DHT22;17110;52.602;12.998;2023-03-14T04:05:04;10.50;99.90
30300;DHT22;17110;52.602;12.998;2023-03-14T04:07:33;10.40;99.90
30300;DHT22;17110;52.602;12.998;2023-03-14T04:09:59;10.40;99.90
30300;DHT22;17110;52.602;12.998;2023-03-14T04:12:26;10.30;99.90
30300;DHT22;17110;52.602;12.998;2023-03-14T04:14:57;10.30;99.90
30300;DHT22;17110;52.602;12.998;2023-03-14T04:17:23;10.20;99.90
30300;DHT22;17110;52.602;12.998;2023-03-14T04:19:48;10.20;99.90
30300;DHT22;17110;52.602;12.998;2023-03-14T04:22:16;10.30;99.90
30300;DHT22;17110;52.602;12.998;2023-03-14T04:24:42;10.20;99.90
30300;DHT22;17110;52.602;12.998;2023-03-14T04:27:08;10.30;99.90
30300;DHT22;17110;52.602;12.998;2023-03-14T04:29:34;10.40;99.90
30300;DHT22;17110;52.602;12.998;2023-03-14T04:32:00;10.30;99.90
30300;DHT22;17110;52.602;12.998;2023-03-14T04:34:25;10.30;99.90
30300;DHT22;17110;52.602;12.998;2023-03-14T04:36:51;10.40;99.90
30300;DHT22;17110;52.602;12.998;2023-03-14T04:39:17;10.40;99.90
30300;DHT22;17110;52.602;12.998;2023-03-14T04:41:44;10.50;99.90
30300;DHT22;17110;52.602;12.998;2023-03-14T04:44:10;10.40;99.90
30300;DHT22;17110;52.602;12.998;2023-03-14T04:46:35;10.40;99.90
30300;DHT22;17110;52.602;12.998;2023-03-14T04:49:01;10.40;99.90
30300;DHT22;17110;52.602;12.998;2023-03-14T04:51:27;10.40;99.90
30300;DHT22;17110;52.602;12.998;2023-03-14T04:53:53;10.40;99.90
30300;DHT22;17110;52.602;12.998;2023-03-14T04:56:20;10.40;99.90
30300;DHT22;17110;52.602;12.998;2023-03-14T04:58:46;10.30;99.90
30300;DHT22;17110;52.602;12.998;2023-03-14T05:01:11;10.30;99.90
30300;DHT22;17110;52.602;12.998;2023-03-14T05:03:37;10.20;99.90
30300;DHT22;17110;52.602;12.998;2023-03-14T05:06:04;10.20;99.90
30300;DHT22;17110;52.602;12.998;2023-03-14T05:08:30;10.20;99.90
30300;DHT22;17110;52.602;12.998;2023-03-14T05:10:57;10.20;99.90
30300;DHT22;17110;52.602;12.998;2023-03-14T05:13:27;10.30;99.90
30300;DHT22;17110;52.602;12.998;2023-03-14T05:15:52;10.20;99.90
30300;DHT22;17110;52.602;12.998;2023-03-14T05:18:20;10.20;99.90
30300;DHT22;17110;52.602;12.998;2023-03-14T05:20:46;10.20;99.90
30300;DHT22;17110;52.602;12.998;2023-03-14T05:23:12;10.10;99.90
30300;DHT22;17110;52.602;12.998;2023-03-14T05:25:38;10.20;99.90
30300;DHT22;17110;52.602;12.998;2023-03-14T05:28:04;10.20;99.90
30300;DHT22;17110;52.602;12.998;2023-03-14T05:30:29;10.30;99.90
30300;DHT22;17110;52.602;12.998;2023-03-14T05:32:56;10.30;99.90
30300;DHT22;17110;52.602;12.998;2023-03-14T05:35:22;10.30;99.90
30300;DHT22;17110;52.602;12.998;2023-03-14T05:37:48;10.30;99.90
30300;DHT22;17110;52.602;12.998;2023-03-14T05:40:14;10.30;99.90
30300;DHT22;17110;52.602;12.998;2023-03-14T05:42:39;10.30;99.90
30300;DHT22;17110;52.602;12.998;2023-03-14T05:45:06;10.30;99.90
30300;DHT22;17110;52.602;12.998;2023-03-14T05:47:31;10.30;99.90
30300;DHT22;17110;52.602;12.998;2023-03-14T05:50:03;10.30;99.90
30300;DHT22;17110;52.602;12.998;2023-03-14T05:52:29;10.40;99.90
30300;DHT22;17110;52.602;12.998;2023-03-14T05:54:54;10.40;99.90
30300;DHT22;17110;52.602;12.998;2023-03-14T05:57:20;10.60;99.90
30300;DHT22;17110;52.602;12.998;2023-03-14T05:59:46;10.40;99.90
30300;DHT22;17110;52.602;12.998;2023-03-14T06:02:14;10.30;99.90
30300;DHT22;17110;52.602;12.998;2023-03-14T06:04:40;10.30;99.90
30300;DHT22;17110;52.602;12.998;2023-03-14T06:07:06;10.30;99.90
30300;DHT22;17110;52.602;12.998;2023-03-14T06:09:34;10.40;99.90
30300;DHT22;17110;52.602;12.998;2023-03-14T06:12:00;10.40;99.90
30300;DHT22;17110;52.602;12.998;2023-03-14T06:14:26;10.40;99.90
30300;DHT22;17110;52.602;12.998;2023-03-14T06:16:52;10.50;99.90
30300;DHT22;17110;52.602;12.998;2023-03-14T06:19:18;10.40;99.90
30300;DHT22;17110;52.602;12.998;2023-03-14T06:21:44;10.50;99.90
30300;DHT22;17110;52.602;12.998;2023-03-14T06:24:10;10.60;99.90
30300;DHT22;17110;52.602;12.998;2023-03-14T06:26:36;10.60;99.90
30300;DHT22;17110;52.602;12.998;2023-03-14T06:29:02;10.70;99.90
30300;DHT22;17110;52.602;12.998;2023-03-14T06:31:32;10.60;99.90
30300;DHT22;17110;52.602;12.998;2023-03-14T06:33:59;10.70;99.90
30300;DHT22;17110;52.602;12.998;2023-03-14T06:36:25;10.60;99.90
30300;DHT22;17110;52.602;12.998;2023-03-14T06:38:51;10.60;99.90
30300;DHT22;17110;52.602;12.998;2023-03-14T06:41:17;10.60;99.90
30300;DHT22;17110;52.602;12.998;2023-03-14T06:43:42;10.70;99.90
30300;DHT22;17110;52.602;12.998;2023-03-14T06:46:08;10.70;99.90
30300;DHT22;17110;52.602;12.998;2023-03-14T06:48:34;10.80;99.90
30300;DHT22;17110;52.602;12.998;2023-03-14T06:50:59;10.90;99.90
30300;DHT22;17110;52.602;12.998;2023-03-14T06:53:25;11.10;99.90
30300;DHT22;17110;52.602;12.998;2023-03-14T06:55:51;11.10;99.90
30300;DHT22;17110;52.602;12.998;2023-03-14T06:58:17;11.20;99.90
30300;DHT22;17110;52.602;12.998;2023-03-14T07:00:43;11.30;99.90
30300;DHT22;17110;52.602;12.998;2023-03-14T07:03:10;11.60;99.90
30300;DHT22;17110;52.602;12.998;2023-03-14T07:05:35;11.60;99.90
30300;DHT22;17110;52.602;12.998;2023-03-14T07:08:01;11.50;99.90
30300;DHT22;17110;52.602;12.998;2023-03-14T07:10:27;11.40;99.90
30300;DHT22;17110;52.602;12.998;2023-03-14T07:12:53;11.40;99.90
30300;DHT22;17110;52.602;12.998;2023-03-14T07:15:19;11.40;99.90
30300;DHT22;17110;52.602;12.998;2023-03-14T07:17:46;11.40;99.90
30300;DHT22;17110;52.602;12.998;2023-03-14T07:20:13;11.50;99.90
30300;DHT22;17110;52.602;12.998;2023-03-14T07:22:39;11.70;99.90
30300;DHT22;17110;52.602;12.998;2023-03-14T07:25:05;12.00;99.90
30300;DHT22;17110;52.602;12.998;2023-03-14T07:27:31;12.40;99.90
30300;DHT22;17110;52.602;12.998;2023-03-14T07:29:57;12.80;99.90
30300;DHT22;17110;52.602;12.998;2023-03-14T07:32:23;12.80;99.90
30300;DHT22;17110;52.602;12.998;2023-03-14T07:34:48;12.50;99.90
30300;DHT22;17110;52.602;12.998;2023-03-14T07:37:14;12.30;99.90
30300;DHT22;17110;52.602;12.998;2023-03-14T07:39:40;12.40;99.90
30300;DHT22;17110;52.602;12.998;2023-03-14T07:42:06;12.30;99.90
30300;DHT22;17110;52.602;12.998;2023-03-14T07:44:32;12.10;99.90
30300;DHT22;17110;52.602;12.998;2023-03-14T07:46:58;12.40;99.90
30300;DHT22;17110;52.602;12.998;2023-03-14T07:49:24;12.60;99.90
30300;DHT22;17110;52.602;12.998;2023-03-14T07:51:50;12.90;99.90
30300;DHT22;17110;52.602;12.998;2023-03-14T07:54:16;12.60;99.90
30300;DHT22;17110;52.602;12.998;2023-03-14T07:56:41;12.30;99.90
30300;DHT22;17110;52.602;12.998;2023-03-14T07:59:08;12.20;99.90
30300;DHT22;17110;52.602;12.998;2023-03-14T08:01:34;12.30;99.90
30300;DHT22;17110;52.602;12.998;2023-03-14T08:04:00;12.20;99.90
30300;DHT22;17110;52.602;12.998;2023-03-14T08:06:27;12.20;99.90
30300;DHT22;17110;52.602;12.998;2023-03-14T08:08:53;12.10;99.90
30300;DHT22;17110;52.602;12.998;2023-03-14T08:11:18;12.10;99.90
30300;DHT22;17110;52.602;12.998;2023-03-14T08:13:44;12.20;99.90
30300;DHT22;17110;52.602;12.998;2023-03-14T08:16:20;12.10;99.90
30300;DHT22;17110;52.602;12.998;2023-03-14T08:18:47;12.00;99.90
30300;DHT22;17110;52.602;12.998;2023-03-14T08:21:16;12.10;99.90
30300;DHT22;17110;52.602;12.998;2023-03-14T08:23:41;12.00;99.90
30300;DHT22;17110;52.602;12.998;2023-03-14T08:26:08;12.00;99.90
30300;DHT22;17110;52.602;12.998;2023-03-14T08:28:34;12.10;99.90
30300;DHT22;17110;52.602;12.998;2023-03-14T08:31:00;12.10;99.90
30300;DHT22;17110;52.602;12.998;2023-03-14T08:33:28;12.00;99.90
30300;DHT22;17110;52.602;12.998;2023-03-14T08:35:55;12.70;99.90
30300;DHT22;17110;52.602;12.998;2023-03-14T08:38:21;13.60;99.90
30300;DHT22;17110;52.602;12.998;2023-03-14T08:40:47;13.40;99.90
30300;DHT22;17110;52.602;12.998;2023-03-14T08:43:14;13.00;99.90
30300;DHT22;17110;52.602;12.998;2023-03-14T08:45:40;12.90;99.90
30300;DHT22;17110;52.602;12.998;2023-03-14T08:48:06;13.10;99.90
30300;DHT22;17110;52.602;12.998;2023-03-14T08:50:31;13.00;99.90
30300;DHT22;17110;52.602;12.998;2023-03-14T08:52:57;13.00;99.90
30300;DHT22;17110;52.602;12.998;2023-03-14T08:55:26;13.20;99.90
30300;DHT22;17110;52.602;12.998;2023-03-14T08:57:55;13.30;99.90
30300;DHT22;17110;52.602;12.998;2023-03-14T09:00:21;13.40;99.90
30300;DHT22;17110;52.602;12.998;2023-03-14T09:02:47;13.80;99.90
30300;DHT22;17110;52.602;12.998;2023-03-14T09:05:13;14.30;99.90
30300;DHT22;17110;52.602;12.998;2023-03-14T09:07:41;15.00;99.90
30300;DHT22;17110;52.602;12.998;2023-03-14T09:10:08;14.90;99.90
30300;DHT22;17110;52.602;12.998;2023-03-14T09:17:34;15.00;99.90
30300;DHT22;17110;52.602;12.998;2023-03-14T09:19:59;14.80;99.90
30300;DHT22;17110;52.602;12.998;2023-03-14T09:22:25;14.70;99.90
30300;DHT22;17110;52.602;12.998;2023-03-14T09:24:51;14.30;99.90
30300;DHT22;17110;52.602;12.998;2023-03-14T09:27:17;14.00;99.90
30300;DHT22;17110;52.602;12.998;2023-03-14T09:29:43;14.00;99.90
30300;DHT22;17110;52.602;12.998;2023-03-14T09:32:09;14.20;99.90
30300;DHT22;17110;52.602;12.998;2023-03-14T09:34:57;13.90;99.90
30300;DHT22;17110;52.602;12.998;2023-03-14T09:37:23;14.00;99.90
30300;DHT22;17110;52.602;12.998;2023-03-14T09:39:49;13.90;99.90
30300;DHT22;17110;52.602;12.998;2023-03-14T09:42:17;13.90;99.90
30300;DHT22;17110;52.602;12.998;2023-03-14T09:45:02;14.10;99.90
30300;DHT22;17110;52.602;12.998;2023-03-14T09:47:29;14.60;99.90
30300;DHT22;17110;52.602;12.998;2023-03-14T09:49:55;14.60;99.90
30300;DHT22;17110;52.602;12.998;2023-03-14T09:52:29;14.90;99.90
30300;DHT22;17110;52.602;12.998;2023-03-14T09:55:16;14.70;99.90
30300;DHT22;17110;52.602;12.998;2023-03-14T09:57:43;14.40;99.90
30300;DHT22;17110;52.602;12.998;2023-03-14T10:00:18;14.30;99.90
30300;DHT22;17110;52.602;12.998;2023-03-14T10:02:55;13.90;99.90
30300;DHT22;17110;52.602;12.998;2023-03-14T10:05:25;13.80;99.90
30300;DHT22;17110;52.602;12.998;2023-03-14T10:07:53;13.60;99.90
30300;DHT22;17110;52.602;12.998;2023-03-14T10:10:21;13.40;99.90
30300;DHT22;17110;52.602;12.998;2023-03-14T10:12:55;13.60;99.90
30300;DHT22;17110;52.602;12.998;2023-03-14T10:15:31;13.50;99.90
30300;DHT22;17110;52.602;12.998;2023-03-14T10:18:00;13.40;99.90
30300;DHT22;17110;52.602;12.998;2023-03-14T10:20:36;13.30;99.90
30300;DHT22;17110;52.602;12.998;2023-03-14T10:25:40;13.20;99.90
30300;DHT22;17110;52.602;12.998;2023-03-14T10:28:31;13.30;99.90
30300;DHT22;17110;52.602;12.998;2023-03-14T10:30:57;13.40;99.90
30300;DHT22;17110;52.602;12.998;2023-03-14T10:33:26;13.50;99.90
30300;DHT22;17110;52.602;12.998;2023-03-14T10:36:38;13.50;99.90
30300;DHT22;17110;52.602;12.998;2023-03-14T10:38:39;13.40;99.90
30300;DHT22;17110;52.602;12.998;2023-03-14T10:41:20;13.40;99.90
30300;DHT22;17110;52.602;12.998;2023-03-14T10:43:57;13.40;99.90
30300;DHT22;17110;52.602;12.998;2023-03-14T10:46:25;13.50;99.90
30300;DHT22;17110;52.602;12.998;2023-03-14T10:48:53;13.40;99.90
30300;DHT22;17110;52.602;12.998;2023-03-14T10:51:26;13.30;99.90
30300;DHT22;17110;52.602;12.998;2023-03-14T10:56:26;13.40;99.90
30300;DHT22;17110;52.602;12.998;2023-03-14T10:58:58;13.30;99.90
30300;DHT22;17110;52.602;12.998;2023-03-14T11:02:00;13.30;99.90
30300;DHT22;17110;52.602;12.998;2023-03-14T11:07:45;13.30;99.90
30300;DHT22;17110;52.602;12.998;2023-03-14T11:13:11;13.30;99.90
30300;DHT22;17110;52.602;12.998;2023-03-14T11:16:13;13.30;99.90
30300;DHT22;17110;52.602;12.998;2023-03-14T11:22:05;13.20;99.90
30300;DHT22;17110;52.602;12.998;2023-03-14T11:24:58;13.10;99.90
30300;DHT22;17110;52.602;12.998;2023-03-14T11:27:43;13.00;99.90
30300;DHT22;17110;52.602;12.998;2023-03-14T11:30:32;13.00;99.90
30300;DHT22;17110;52.602;12.998;2023-03-14T11:33:03;13.20;99.90
30300;DHT22;17110;52.602;12.998;2023-03-14T11:35:53;13.30;99.90
30300;DHT22;17110;52.602;12.998;2023-03-14T11:39:32;13.30;99.90
30300;DHT22;17110;52.602;12.998;2023-03-14T11:41:57;13.20;99.90
30300;DHT22;17110;52.602;12.998;2023-03-14T11:44:39;13.00;99.90
30300;DHT22;17110;52.602;12.998;2023-03-14T11:47:10;12.90;99.90
30300;DHT22;17110;52.602;12.998;2023-03-14T11:49:53;12.80;99.90
30300;DHT22;17110;52.602;12.998;2023-03-14T11:52:36;12.80;99.90
30300;DHT22;17110;52.602;12.998;2023-03-14T11:55:21;12.70;99.90
30300;DHT22;17110;52.602;12.998;2023-03-14T11:57:55;12.70;99.90
30300;DHT22;17110;52.602;12.998;2023-03-14T12:00:23;12.70;99.90
30300;DHT22;17110;52.602;12.998;2023-03-14T12:08:33;13.30;99.90
30300;DHT22;17110;52.602;12.998;2023-03-14T12:11:04;13.40;99.90
30300;DHT22;17110;52.602;12.998;2023-03-14T12:13:37;13.60;99.90
30300;DHT22;17110;52.602;12.998;2023-03-14T12:18:50;14.10;99.90
30300;DHT22;17110;52.602;12.998;2023-03-14T12:21:17;14.30;99.90
30300;DHT22;17110;52.602;12.998;2023-03-14T12:29:11;14.90;99.90
30300;DHT22;17110;52.602;12.998;2023-03-14T12:31:47;15.30;99.90
30300;DHT22;17110;52.602;12.998;2023-03-14T12:39:37;14.40;99.90
30300;DHT22;17110;52.602;12.998;2023-03-14T12:42:10;14.40;99.90
30300;DHT22;17110;52.602;12.998;2023-03-14T12:44:47;14.20;99.90
30300;DHT22;17110;52.602;12.998;2023-03-14T12:49:50;14.20;99.90
30300;DHT22;17110;52.602;12.998;2023-03-14T12:52:29;14.10;99.90
30300;DHT22;17110;52.602;12.998;2023-03-14T12:55:17;13.90;99.90
30300;DHT22;17110;52.602;12.998;2023-03-14T13:00:55;14.50;99.90
30300;DHT22;17110;52.602;12.998;2023-03-14T13:03:24;14.30;99.90
30300;DHT22;17110;52.602;12.998;2023-03-14T13:06:02;14.20;99.90
30300;DHT22;17110;52.602;12.998;2023-03-14T13:08:56;14.50;99.90
30300;DHT22;17110;52.602;12.998;2023-03-14T13:11:23;14.90;99.90
30300;DHT22;17110;52.602;12.998;2023-03-14T13:13:57;14.80;99.90
30300;DHT22;17110;52.602;12.998;2023-03-14T13:16:24;14.60;99.90
30300;DHT22;17110;52.602;12.998;2023-03-14T13:19:02;15.00;99.90
30300;DHT22;17110;52.602;12.998;2023-03-14T13:21:35;15.20;99.90
30300;DHT22;17110;52.602;12.998;2023-03-14T13:24:05;15.30;99.90
30300;DHT22;17110;52.602;12.998;2023-03-14T13:27:16;15.10;99.90
30300;DHT22;17110;52.602;12.998;2023-03-14T13:29:28;14.60;99.90
30300;DHT22;17110;52.602;12.998;2023-03-14T13:32:01;14.80;99.90
30300;DHT22;17110;52.602;12.998;2023-03-14T13:34:29;15.10;99.90
30300;DHT22;17110;52.602;12.998;2023-03-14T13:36:56;15.20;99.90
30300;DHT22;17110;52.602;12.998;2023-03-14T13:39:24;15.30;99.90
30300;DHT22;17110;52.602;12.998;2023-03-14T13:41:58;15.10;99.90
30300;DHT22;17110;52.602;12.998;2023-03-14T13:44:40;14.90;99.90
30300;DHT22;17110;52.602;12.998;2023-03-14T13:47:14;15.00;99.90
30300;DHT22;17110;52.602;12.998;2023-03-14T13:49:43;15.10;99.90
30300;DHT22;17110;52.602;12.998;2023-03-14T13:52:36;15.20;99.90
30300;DHT22;17110;52.602;12.998;2023-03-14T13:55:30;15.20;99.90
30300;DHT22;17110;52.602;12.998;2023-03-14T13:58:31;15.10;99.90
30300;DHT22;17110;52.602;12.998;2023-03-14T14:01:13;15.10;99.90
30300;DHT22;17110;52.602;12.998;2023-03-14T14:03:42;15.10;99.90
30300;DHT22;17110;52.602;12.998;2023-03-14T14:06:34;14.70;99.90
30300;DHT22;17110;52.602;12.998;2023-03-14T14:09:24;14.30;99.90
30300;DHT22;17110;52.602;12.998;2023-03-14T14:11:55;14.20;99.90
30300;DHT22;17110;52.602;12.998;2023-03-14T14:16:52;13.90;99.90
30300;DHT22;17110;52.602;12.998;2023-03-14T14:19:22;13.80;99.90
30300;DHT22;17110;52.602;12.998;2023-03-14T14:21:49;13.60;99.90
30300;DHT22;17110;52.602;12.998;2023-03-14T14:24:15;13.30;99.90
30300;DHT22;17110;52.602;12.998;2023-03-14T14:26:47;13.00;99.90
30300;DHT22;17110;52.602;12.998;2023-03-14T14:29:32;13.20;99.90
30300;DHT22;17110;52.602;12.998;2023-03-14T14:32:13;13.30;99.90
30300;DHT22;17110;52.602;12.998;2023-03-14T14:34:45;13.20;99.90
30300;DHT22;17110;52.602;12.998;2023-03-14T14:37:22;13.10;99.90
30300;DHT22;17110;52.602;12.998;2023-03-14T14:39:50;12.80;99.90
30300;DHT22;17110;52.602;12.998;2023-03-14T14:42:24;12.70;99.90
30300;DHT22;17110;52.602;12.998;2023-03-14T14:44:51;12.50;99.90
30300;DHT22;17110;52.602;12.998;2023-03-14T14:47:23;12.50;99.90
30300;DHT22;17110;52.602;12.998;2023-03-14T14:49:51;12.50;99.90
30300;DHT22;17110;52.602;12.998;2023-03-14T14:52:30;11.10;99.90
30300;DHT22;17110;52.602;12.998;2023-03-14T14:55:00;9.10;99.90
30300;DHT22;17110;52.602;12.998;2023-03-14T14:57:33;7.80;99.90
30300;DHT22;17110;52.602;12.998;2023-03-14T15:00:06;6.90;99.90
30300;DHT22;17110;52.602;12.998;2023-03-14T15:02:41;6.50;99.90
30300;DHT22;17110;52.602;12.998;2023-03-14T15:05:28;6.20;99.90
30300;DHT22;17110;52.602;12.998;2023-03-14T15:08:01;6.00;99.90
30300;DHT22;17110;52.602;12.998;2023-03-14T15:10:27;6.00;99.90
30300;DHT22;17110;52.602;12.998;2023-03-14T15:13:01;5.90;99.90
30300;DHT22;17110;52.602;12.998;2023-03-14T15:15:28;5.60;99.90
30300;DHT22;17110;52.602;12.998;2023-03-14T15:17:53;5.40;99.90
30300;DHT22;17110;52.602;12.998;2023-03-14T15:20:20;5.10;99.90
30300;DHT22;17110;52.602;12.998;2023-03-14T15:22:49;4.70;99.90
30300;DHT22;17110;52.602;12.998;2023-03-14T15:25:16;4.60;99.90
30300;DHT22;17110;52.602;12.998;2023-03-14T15:27:41;4.30;99.90
30300;DHT22;17110;52.602;12.998;2023-03-14T15:30:11;4.40;99.90
30300;DHT22;17110;52.602;12.998;2023-03-14T15:32:37;4.20;99.90
30300;DHT22;17110;52.602;12.998;2023-03-14T15:35:03;4.00;99.90
30300;DHT22;17110;52.602;12.998;2023-03-14T15:37:29;3.70;99.90
30300;DHT22;17110;52.602;12.998;2023-03-14T15:39:56;3.60;99.90
30300;DHT22;17110;52.602;12.998;2023-03-14T15:42:23;3.30;99.90
30300;DHT22;17110;52.602;12.998;2023-03-14T15:44:49;3.20;99.90
30300;DHT22;17110;52.602;12.998;2023-03-14T15:47:15;3.10;99.90
30300;DHT22;17110;52.602;12.998;2023-03-14T15:49:41;2.60;99.90
30300;DHT22;17110;52.602;12.998;2023-03-14T15:52:07;2.40;99.90
30300;DHT22;17110;52.602;12.998;2023-03-14T15:54:34;2.30;99.90
30300;DHT22;17110;52.602;12.998;2023-03-14T15:57:00;2.40;99.90
30300;DHT22;17110;52.602;12.998;2023-03-14T15:59:26;2.20;99.90
30300;DHT22;17110;52.602;12.998;2023-03-14T16:01:52;2.20;99.90
30300;DHT22;17110;52.602;12.998;2023-03-14T16:04:18;2.30;99.90
30300;DHT22;17110;52.602;12.998;2023-03-14T16:06:44;2.30;99.90
30300;DHT22;17110;52.602;12.998;2023-03-14T16:09:11;2.10;99.90
30300;DHT22;17110;52.602;12.998;2023-03-14T16:11:37;2.20;99.90
30300;DHT22;17110;52.602;12.998;2023-03-14T16:14:03;1.90;99.90
30300;DHT22;17110;52.602;12.998;2023-03-14T16:16:30;2.10;99.90
30300;DHT22;17110;52.602;12.998;2023-03-14T16:18:56;2.30;99.90
30300;DHT22;17110;52.602;12.998;2023-03-14T16:21:22;2.00;99.90
30300;DHT22;17110;52.602;12.998;2023-03-14T16:23:48;1.90;99.90
30300;DHT22;17110;52.602;12.998;2023-03-14T16:26:18;2.00;99.90
30300;DHT22;17110;52.602;12.998;2023-03-14T16:28:45;2.40;99.90